createdAt,value
2022-08-26T00:01:54.481Z,18.95
2022-08-26T00:04:23.641Z,21.80
2022-08-26T00:06:51.696Z,20.05
2022-08-26T00:09:19.759Z,22.30
2022-08-26T00:11:48.030Z,20.23
2022-08-26T00:14:16.503Z,23.05
2022-08-26T00:16:47.495Z,19.92
2022-08-26T00:19:17.069Z,21.45
2022-08-26T00:21:48.740Z,27.23
2022-08-26T00:24:18.483Z,22.90
2022-08-26T00:26:46.730Z,19.65
2022-08-26T00:29:15.126Z,18.85
2022-08-26T00:31:45.002Z,17.60
2022-08-26T00:34:16.534Z,16.67
2022-08-26T00:36:47.394Z,23.35
2022-08-26T00:39:20.087Z,18.90
2022-08-26T00:41:48.278Z,20.10
2022-08-26T00:44:16.253Z,24.48
2022-08-26T00:46:47.811Z,21.60
2022-08-26T00:49:21.322Z,26.23
2022-08-26T00:51:53.714Z,19.58
2022-08-26T00:56:56.030Z,25.30
2022-08-26T00:59:24.993Z,19.35
2022-08-26T01:01:54.473Z,25.00
2022-08-26T01:04:24.442Z,21.90
2022-08-26T01:06:55.140Z,25.87
2022-08-26T01:09:24.020Z,20.58
2022-08-26T01:11:56.420Z,23.95
2022-08-26T01:16:53.637Z,26.08
2022-08-26T01:19:25.935Z,21.98
2022-08-26T01:21:59.013Z,22.70
2022-08-26T01:24:30.733Z,23.23
2022-08-26T01:27:02.559Z,26.40
2022-08-26T01:29:31.965Z,19.80
2022-08-26T01:32:00.228Z,24.50
2022-08-26T01:34:30.910Z,20.50
2022-08-26T01:37:03.874Z,20.50
2022-08-26T01:39:36.069Z,26.58
2022-08-26T01:42:06.387Z,25.13
2022-08-26T01:44:45.028Z,23.30
2022-08-26T01:47:14.512Z,21.95
2022-08-26T01:49:44.225Z,20.30
2022-08-26T01:52:15.146Z,18.17
2022-08-26T01:54:46.271Z,26.35
2022-08-26T01:57:19.685Z,20.63
2022-08-26T01:59:48.995Z,22.55
2022-08-26T02:02:18.385Z,25.23
2022-08-26T02:04:51.898Z,17.00
2022-08-26T02:07:21.909Z,23.15
2022-08-26T02:09:56.836Z,17.17
2022-08-26T02:12:26.443Z,19.50
2022-08-26T02:14:59.086Z,20.95
2022-08-26T02:17:30.785Z,22.92
2022-08-26T02:19:59.329Z,22.48
2022-08-26T02:22:27.344Z,24.65
2022-08-26T02:25:00.245Z,25.08
2022-08-26T02:27:33.040Z,21.98
2022-08-26T02:30:08.031Z,18.27
2022-08-26T02:32:36.269Z,28.90
2022-08-26T02:35:04.150Z,22.63
2022-08-26T02:37:32.907Z,21.80
2022-08-26T02:40:04.853Z,24.65
2022-08-26T02:42:33.149Z,22.90
2022-08-26T02:45:01.662Z,21.67
2022-08-26T02:47:30.478Z,21.38
2022-08-26T02:50:00.410Z,27.00
2022-08-26T02:52:28.433Z,19.45
2022-08-26T02:54:56.358Z,23.23
2022-08-26T02:57:25.664Z,22.80
2022-08-26T02:59:54.202Z,19.48
2022-08-26T03:02:22.470Z,18.50
2022-08-26T03:04:57.367Z,19.67
2022-08-26T03:07:26.037Z,18.85
2022-08-26T03:09:54.004Z,25.52
2022-08-26T03:12:22.028Z,21.27
2022-08-26T03:14:51.216Z,23.55
2022-08-26T03:17:21.020Z,21.60
2022-08-26T03:19:52.907Z,21.05
2022-08-26T03:22:25.204Z,22.17
2022-08-26T03:24:53.371Z,26.95
2022-08-26T03:27:21.613Z,26.55
2022-08-26T03:30:08.386Z,22.38
2022-08-26T03:32:41.528Z,22.55
2022-08-26T03:35:10.519Z,21.08
2022-08-26T03:37:38.802Z,24.33
2022-08-26T03:40:10.367Z,20.23
2022-08-26T03:42:39.233Z,21.47
2022-08-26T03:45:11.977Z,20.02
2022-08-26T03:47:41.027Z,25.45
2022-08-26T03:50:11.110Z,20.83
2022-08-26T03:52:43.558Z,25.08
2022-08-26T03:55:12.427Z,19.95
2022-08-26T03:57:40.355Z,28.75
2022-08-26T04:00:18.306Z,22.30
2022-08-26T04:02:48.715Z,22.98
2022-08-26T04:05:19.345Z,23.40
2022-08-26T04:07:48.575Z,24.05
2022-08-26T04:10:20.188Z,22.17
2022-08-26T04:12:48.333Z,28.42
2022-08-26T04:15:18.881Z,24.77
2022-08-26T04:17:47.355Z,25.35
2022-08-26T04:20:18.092Z,22.88
2022-08-26T04:22:46.530Z,24.50
2022-08-26T04:25:14.797Z,24.60
2022-08-26T04:27:42.624Z,28.48
2022-08-26T04:30:11.748Z,24.08
2022-08-26T04:32:41.049Z,27.00
2022-08-26T04:35:10.113Z,21.83
2022-08-26T04:37:38.682Z,20.13
2022-08-26T04:40:10.071Z,22.55
2022-08-26T04:42:38.263Z,29.13
2022-08-26T04:45:10.178Z,22.85
2022-08-26T04:47:38.549Z,22.50
2022-08-26T04:50:09.687Z,21.85
2022-08-26T04:52:39.001Z,19.77
2022-08-26T04:55:08.366Z,26.90
2022-08-26T04:57:36.745Z,25.42
2022-08-26T05:00:06.113Z,20.98
2022-08-26T05:02:34.291Z,20.17
2022-08-26T05:05:02.449Z,19.45
2022-08-26T05:07:32.323Z,20.80
2022-08-26T05:10:00.426Z,22.88
2022-08-26T05:12:29.205Z,23.13
2022-08-26T05:14:57.717Z,28.67
2022-08-26T05:17:27.236Z,22.42
2022-08-26T05:19:55.454Z,24.05
2022-08-26T05:22:23.351Z,25.17
2022-08-26T05:24:52.568Z,18.27
2022-08-26T05:27:20.500Z,28.25
2022-08-26T05:29:48.401Z,25.85
2022-08-26T05:32:22.406Z,23.92
2022-08-26T05:34:55.290Z,29.15
2022-08-26T05:37:23.157Z,22.98
2022-08-26T05:39:52.356Z,22.65
2022-08-26T05:42:21.463Z,21.38
2022-08-26T05:44:54.104Z,24.75
2022-08-26T05:47:24.184Z,21.40
2022-08-26T05:49:52.242Z,20.40
2022-08-26T05:52:21.207Z,18.52
2022-08-26T05:54:54.223Z,26.37
2022-08-26T05:57:23.153Z,21.85
2022-08-26T05:59:51.962Z,19.00
2022-08-26T06:02:20.539Z,29.05
2022-08-26T06:04:48.434Z,21.27
2022-08-26T06:07:17.086Z,33.25
2022-08-26T06:09:46.417Z,20.48
2022-08-26T06:12:15.806Z,24.33
2022-08-26T06:14:46.538Z,24.58
2022-08-26T06:17:16.908Z,30.27
2022-08-26T06:19:45.658Z,33.03
2022-08-26T06:22:27.386Z,29.13
2022-08-26T06:25:12.655Z,23.37
2022-08-26T06:27:41.913Z,26.55
2022-08-26T06:30:10.903Z,23.48
2022-08-26T06:32:38.710Z,22.42
2022-08-26T06:35:11.913Z,27.02
2022-08-26T06:37:40.265Z,28.83
2022-08-26T06:40:10.002Z,32.15
2022-08-26T06:42:40.851Z,30.55
2022-08-26T06:45:09.563Z,24.98
2022-08-26T06:47:39.053Z,29.60
2022-08-26T06:50:07.950Z,26.55
2022-08-26T06:52:35.804Z,20.15
2022-08-26T06:55:03.813Z,27.88
2022-08-26T06:57:32.950Z,24.10
2022-08-26T07:00:05.565Z,27.40
2022-08-26T07:02:35.543Z,23.27
2022-08-26T07:05:04.057Z,34.65
2022-08-26T07:07:32.579Z,37.45
2022-08-26T07:10:00.808Z,20.95
2022-08-26T07:12:29.445Z,28.65
2022-08-26T07:14:57.699Z,29.00
2022-08-26T07:17:26.936Z,24.73
2022-08-26T07:19:55.291Z,24.88
2022-08-26T07:22:23.136Z,31.63
2022-08-26T07:24:52.202Z,23.23
2022-08-26T07:27:20.031Z,28.20
2022-08-26T07:29:48.883Z,27.48
2022-08-26T07:32:18.471Z,26.10
2022-08-26T07:34:47.884Z,27.50
2022-08-26T07:37:16.311Z,47.63
2022-08-26T07:39:45.710Z,26.77
2022-08-26T07:42:16.244Z,34.58
2022-08-26T07:44:46.573Z,29.83
2022-08-26T07:47:25.255Z,24.08
2022-08-26T07:49:57.551Z,34.20
2022-08-26T07:52:27.634Z,32.67
2022-08-26T07:54:56.411Z,24.90
2022-08-26T07:57:24.574Z,29.48
2022-08-26T07:59:54.073Z,32.38
2022-08-26T08:02:24.334Z,31.85
2022-08-26T08:04:52.717Z,28.63
2022-08-26T08:07:38.304Z,28.13
2022-08-26T08:10:13.296Z,30.58
2022-08-26T08:12:41.546Z,24.23
2022-08-26T08:15:11.501Z,26.45
2022-08-26T08:17:39.702Z,28.73
2022-08-26T08:20:09.190Z,34.05
2022-08-26T08:22:38.651Z,38.85
2022-08-26T08:25:08.404Z,20.13
2022-08-26T08:27:40.689Z,22.25
2022-08-26T08:30:10.244Z,31.02
2022-08-26T08:32:45.035Z,27.58
2022-08-26T08:35:15.412Z,31.48
2022-08-26T08:37:46.207Z,21.63
2022-08-26T08:40:18.105Z,28.13
2022-08-26T08:42:48.498Z,24.42
2022-08-26T08:45:26.509Z,31.55
2022-08-26T08:47:57.829Z,28.40
2022-08-26T08:50:30.722Z,28.80
2022-08-26T08:53:18.336Z,27.60
2022-08-26T08:55:56.929Z,30.13
2022-08-26T08:58:32.253Z,35.45
2022-08-26T09:01:05.581Z,38.92
2022-08-26T09:03:46.810Z,26.27
2022-08-26T09:06:18.634Z,29.98
2022-08-26T09:08:50.694Z,28.00
2022-08-26T09:11:20.095Z,33.47
2022-08-26T09:13:51.615Z,22.05
2022-08-26T09:16:25.375Z,24.40
2022-08-26T09:19:06.057Z,25.83
2022-08-26T09:21:34.322Z,22.17
2022-08-26T09:24:04.179Z,18.42
2022-08-26T09:26:47.349Z,24.50
2022-08-26T09:29:23.854Z,24.55
2022-08-26T09:31:52.911Z,19.65
2022-08-26T09:34:24.323Z,27.55
2022-08-26T09:36:53.827Z,28.15
2022-08-26T09:39:37.776Z,30.08
2022-08-26T09:42:11.799Z,27.35
2022-08-26T09:44:55.763Z,37.53
2022-08-26T09:47:27.879Z,24.20
2022-08-26T09:50:04.574Z,26.00
2022-08-26T09:52:37.610Z,32.80
2022-08-26T09:55:13.532Z,22.58
2022-08-26T09:57:51.389Z,24.35
2022-08-26T10:00:34.175Z,27.65
2022-08-26T10:03:10.723Z,27.83
2022-08-26T10:05:44.203Z,22.48
2022-08-26T10:08:24.317Z,25.08
2022-08-26T10:10:56.218Z,26.63
2022-08-26T10:13:31.195Z,26.63
2022-08-26T10:16:07.475Z,23.33
2022-08-26T10:18:41.532Z,14.77
2022-08-26T10:21:13.971Z,22.77
2022-08-26T10:23:45.569Z,23.17
2022-08-26T10:26:24.077Z,21.83
2022-08-26T10:29:01.294Z,25.15
2022-08-26T10:31:38.343Z,28.90
2022-08-26T10:34:09.667Z,21.13
2022-08-26T10:37:14.965Z,22.77
2022-08-26T10:39:42.880Z,28.90
2022-08-26T10:42:22.285Z,22.77
2022-08-26T10:44:58.807Z,22.13
2022-08-26T10:47:31.708Z,24.25
2022-08-26T10:50:02.922Z,20.20
2022-08-26T10:52:41.637Z,26.52
2022-08-26T10:55:17.839Z,30.00
2022-08-26T10:57:55.510Z,24.42
2022-08-26T11:00:46.971Z,22.73
2022-08-26T11:03:31.487Z,19.35
2022-08-26T11:06:23.050Z,20.77
2022-08-26T11:08:53.065Z,24.92
2022-08-26T11:11:45.299Z,16.13
2022-08-26T11:14:42.043Z,24.45
2022-08-26T11:18:00.271Z,21.10
2022-08-26T11:20:39.340Z,13.48
2022-08-26T11:23:45.881Z,12.68
2022-08-26T11:26:35.852Z,14.70
2022-08-26T11:29:13.142Z,11.40
2022-08-26T11:31:56.147Z,16.67
2022-08-26T11:34:55.045Z,19.13
2022-08-26T11:37:29.785Z,13.63
2022-08-26T11:40:04.095Z,17.45
2022-08-26T11:42:39.365Z,8.93
2022-08-26T11:45:19.716Z,13.63
2022-08-26T11:47:49.351Z,13.43
2022-08-26T11:50:23.357Z,13.73
2022-08-26T11:52:57.090Z,15.27
2022-08-26T11:55:25.329Z,21.15
2022-08-26T11:57:56.811Z,13.70
2022-08-26T12:00:33.308Z,22.73
2022-08-26T12:03:06.661Z,17.83
2022-08-26T12:05:43.436Z,13.50
2022-08-26T12:08:17.400Z,12.82
2022-08-26T12:10:45.483Z,12.35
2022-08-26T12:13:22.670Z,11.90
2022-08-26T12:15:55.886Z,13.80
2022-08-26T12:18:29.610Z,10.60
2022-08-26T12:21:02.538Z,13.48
2022-08-26T12:23:44.558Z,11.07
2022-08-26T12:26:22.493Z,12.20
2022-08-26T12:28:54.977Z,8.13
2022-08-26T12:31:27.857Z,10.05
2022-08-26T12:33:59.040Z,9.57
2022-08-26T12:36:31.964Z,8.35
2022-08-26T12:39:08.893Z,9.60
2022-08-26T12:41:42.729Z,8.77
2022-08-26T12:44:30.693Z,7.03
2022-08-26T12:47:03.686Z,8.52
2022-08-26T12:49:32.192Z,6.88
2022-08-26T12:52:01.558Z,7.57
2022-08-26T12:54:52.418Z,9.27
2022-08-26T12:57:28.260Z,10.82
2022-08-26T13:00:40.839Z,9.48
2022-08-26T13:03:31.351Z,7.80
2022-08-26T13:06:15.593Z,12.07
2022-08-26T13:08:47.113Z,8.27
2022-08-26T13:11:18.556Z,11.83
2022-08-26T13:13:46.706Z,7.85
2022-08-26T13:16:15.475Z,11.45
2022-08-26T13:18:43.414Z,15.15
2022-08-26T13:21:16.884Z,9.60
2022-08-26T13:23:46.419Z,9.00
2022-08-26T13:26:14.485Z,11.25
2022-08-26T13:28:43.188Z,9.25
2022-08-26T13:31:12.522Z,9.30
2022-08-26T13:33:41.688Z,8.35
2022-08-26T13:36:09.790Z,12.35
2022-08-26T13:38:37.735Z,14.40
2022-08-26T13:41:08.133Z,11.70
2022-08-26T13:43:37.073Z,14.02
2022-08-26T13:46:05.380Z,9.93
2022-08-26T13:48:33.939Z,7.60
2022-08-26T13:51:02.784Z,12.82
2022-08-26T13:53:36.055Z,11.98
2022-08-26T13:56:06.051Z,12.43
2022-08-26T13:58:38.479Z,16.63
2022-08-26T14:01:06.445Z,12.98
2022-08-26T14:03:34.456Z,13.95
2022-08-26T14:06:02.527Z,14.07
2022-08-26T14:08:30.770Z,11.15
2022-08-26T14:10:58.961Z,16.58
2022-08-26T14:13:27.039Z,13.90
2022-08-26T14:15:58.675Z,9.45
2022-08-26T14:20:57.420Z,10.13
2022-08-26T14:23:25.798Z,8.85
2022-08-26T14:25:56.291Z,10.17
2022-08-26T14:28:27.216Z,5.18
2022-08-26T14:30:59.401Z,8.23
2022-08-26T14:33:29.831Z,8.70
2022-08-26T14:36:18.564Z,9.63
2022-08-26T14:38:46.891Z,11.13
2022-08-26T14:41:17.203Z,8.57
2022-08-26T14:43:48.902Z,8.88
2022-08-26T14:46:19.386Z,13.20
2022-08-26T14:48:47.757Z,9.23
2022-08-26T14:51:15.697Z,9.52
2022-08-26T14:54:01.056Z,7.25
2022-08-26T14:56:31.392Z,8.85
2022-08-26T14:58:59.320Z,10.63
2022-08-26T15:01:31.067Z,12.45
2022-08-26T15:06:27.452Z,9.55
2022-08-26T15:08:55.421Z,8.52
2022-08-26T15:11:23.603Z,10.07
2022-08-26T15:13:55.242Z,10.30
2022-08-26T15:16:23.758Z,11.73
2022-08-26T15:18:53.654Z,9.52
2022-08-26T15:21:22.017Z,9.90
2022-08-26T15:23:51.417Z,9.48
2022-08-26T15:26:20.567Z,6.32
2022-08-26T15:28:48.447Z,6.20
2022-08-26T15:31:17.333Z,7.55
2022-08-26T15:33:45.977Z,9.88
2022-08-26T15:36:16.122Z,7.05
2022-08-26T15:38:44.034Z,7.93
2022-08-26T15:41:12.403Z,12.70
2022-08-26T15:43:40.337Z,11.88
2022-08-26T15:46:12.002Z,7.95
2022-08-26T15:48:40.601Z,8.45
2022-08-26T15:51:19.388Z,13.10
2022-08-26T15:53:48.685Z,12.70
2022-08-26T15:56:16.699Z,13.32
2022-08-26T15:58:44.927Z,10.88
2022-08-26T16:01:12.823Z,7.03
2022-08-26T16:03:46.380Z,12.55
2022-08-26T16:06:15.704Z,10.45
2022-08-26T16:08:45.099Z,8.40
2022-08-26T16:11:15.138Z,12.05
2022-08-26T16:13:43.038Z,11.02
2022-08-26T16:16:11.142Z,13.63
2022-08-26T16:18:39.291Z,9.93
2022-08-26T16:21:13.590Z,17.50
2022-08-26T16:23:45.111Z,11.43
2022-08-26T16:26:17.857Z,9.55
2022-08-26T16:28:46.003Z,10.45
2022-08-26T16:31:14.810Z,9.13
2022-08-26T16:33:42.851Z,12.68
2022-08-26T16:36:11.877Z,9.52
2022-08-26T16:38:41.691Z,12.82
2022-08-26T16:41:10.326Z,8.27
2022-08-26T16:43:39.637Z,15.02
2022-08-26T16:46:08.243Z,11.98
2022-08-26T16:48:36.447Z,12.25
2022-08-26T16:51:04.444Z,11.48
2022-08-26T16:53:33.586Z,11.05
2022-08-26T16:56:01.505Z,12.50
2022-08-26T16:58:29.501Z,11.30
2022-08-26T17:00:58.807Z,8.88
2022-08-26T17:03:27.563Z,8.32
2022-08-26T17:05:55.466Z,10.90
2022-08-26T17:08:28.383Z,8.13
2022-08-26T17:10:57.197Z,6.90
2022-08-26T17:13:35.563Z,8.02
2022-08-26T17:16:07.798Z,8.98
2022-08-26T17:18:36.571Z,9.80
2022-08-26T17:21:06.782Z,9.27
2022-08-26T17:23:35.012Z,10.43
2022-08-26T17:26:03.077Z,8.40
2022-08-26T17:28:30.961Z,11.55
2022-08-26T17:30:59.842Z,11.30
2022-08-26T17:33:29.666Z,8.50
2022-08-26T17:35:57.732Z,13.88
2022-08-26T17:38:28.224Z,12.15
2022-08-26T17:40:56.227Z,13.75
2022-08-26T17:43:26.682Z,14.57
2022-08-26T17:45:58.955Z,10.60
2022-08-26T17:48:37.616Z,16.02
2022-08-26T17:51:08.377Z,9.23
2022-08-26T17:53:36.537Z,11.93
2022-08-26T17:56:07.076Z,12.27
2022-08-26T17:58:36.604Z,10.15
2022-08-26T18:01:06.094Z,8.43
2022-08-26T18:03:35.106Z,9.93
2022-08-26T18:06:09.744Z,10.90
2022-08-26T18:08:37.923Z,10.55
2022-08-26T18:11:09.590Z,10.82
2022-08-26T18:13:47.066Z,11.45
2022-08-26T18:16:17.889Z,10.40
2022-08-26T18:18:46.642Z,12.05
2022-08-26T18:21:17.949Z,15.20
2022-08-26T18:23:47.561Z,12.23
2022-08-26T18:26:20.668Z,11.57
2022-08-26T18:28:48.551Z,15.77
2022-08-26T18:31:17.067Z,12.48
2022-08-26T18:33:45.354Z,12.02
2022-08-26T18:36:19.474Z,12.82
2022-08-26T18:38:48.042Z,15.50
2022-08-26T18:41:20.628Z,12.30
2022-08-26T18:43:50.282Z,15.98
2022-08-26T18:46:19.004Z,13.13
2022-08-26T18:48:51.052Z,14.45
2022-08-26T18:51:23.008Z,12.63
2022-08-26T18:53:51.809Z,14.35
2022-08-26T18:56:19.966Z,9.25
2022-08-26T18:58:48.394Z,10.90
2022-08-26T19:01:17.020Z,9.73
2022-08-26T19:03:45.584Z,13.02
2022-08-26T19:06:18.033Z,5.18
2022-08-26T19:08:49.812Z,6.43
2022-08-26T19:11:31.291Z,9.70
2022-08-26T19:14:01.365Z,14.85
2022-08-26T19:16:30.825Z,8.57
2022-08-26T19:19:00.951Z,9.00
2022-08-26T19:21:29.580Z,12.07
2022-08-26T19:24:00.398Z,9.60
2022-08-26T19:26:29.601Z,11.40
2022-08-26T19:28:57.680Z,7.75
2022-08-26T19:31:25.808Z,9.68
2022-08-26T19:33:53.947Z,6.25
2022-08-26T19:36:24.824Z,10.07
2022-08-26T19:38:53.441Z,5.32
2022-08-26T19:41:29.413Z,6.75
2022-08-26T19:44:08.070Z,8.50
2022-08-26T19:46:35.908Z,5.63
2022-08-26T19:49:04.988Z,8.00
2022-08-26T19:51:34.596Z,4.90
2022-08-26T19:54:02.782Z,9.80
2022-08-26T19:56:32.701Z,6.22
2022-08-26T19:59:01.196Z,6.85
2022-08-26T20:01:29.096Z,5.03
2022-08-26T20:03:57.040Z,6.65
2022-08-26T20:06:25.124Z,6.85
2022-08-26T20:08:53.924Z,7.75
2022-08-26T20:11:24.433Z,5.90
2022-08-26T20:13:53.782Z,6.53
2022-08-26T20:16:21.750Z,9.80
2022-08-26T20:19:03.520Z,8.10
2022-08-26T20:21:35.652Z,5.75
2022-08-26T20:24:07.188Z,6.57
2022-08-26T20:26:37.035Z,5.47
2022-08-26T20:29:08.198Z,7.50
2022-08-26T20:31:36.636Z,7.45
2022-08-26T20:34:05.883Z,6.82
2022-08-26T20:36:35.352Z,7.93
2022-08-26T20:39:03.243Z,5.43
2022-08-26T20:41:31.377Z,7.05
2022-08-26T20:43:59.636Z,7.55
2022-08-26T20:46:29.042Z,7.72
2022-08-26T20:48:58.242Z,6.63
2022-08-26T20:51:26.227Z,9.13
2022-08-26T20:53:54.386Z,9.10
2022-08-26T20:56:24.324Z,11.30
2022-08-26T20:58:54.063Z,10.18
2022-08-26T21:01:25.022Z,8.98
2022-08-26T21:03:55.800Z,7.78
2022-08-26T21:06:24.543Z,6.32
2022-08-26T21:08:52.761Z,6.88
2022-08-26T21:11:22.352Z,9.57
2022-08-26T21:14:07.108Z,9.38
2022-08-26T21:16:40.741Z,9.93
2022-08-26T21:19:12.020Z,9.18
2022-08-26T21:21:40.768Z,10.48
2022-08-26T21:24:09.353Z,10.95
2022-08-26T21:26:37.821Z,14.52
2022-08-26T21:29:06.706Z,21.13
2022-08-26T21:31:35.035Z,14.93
2022-08-26T21:34:03.087Z,15.93
2022-08-26T21:36:32.646Z,17.17
2022-08-26T21:39:01.498Z,13.85
2022-08-26T21:41:29.789Z,20.98
2022-08-26T21:43:59.676Z,14.57
2022-08-26T21:46:30.406Z,20.75
2022-08-26T21:49:00.191Z,17.90
2022-08-26T21:51:30.177Z,14.10
2022-08-26T21:54:00.823Z,16.25
2022-08-26T21:56:31.513Z,14.20
2022-08-26T21:59:00.711Z,14.80
2022-08-26T22:01:31.883Z,16.17
2022-08-26T22:06:40.621Z,12.43
2022-08-26T22:09:08.898Z,12.82
2022-08-26T22:11:37.023Z,12.10
2022-08-26T22:14:04.916Z,13.20
2022-08-26T22:16:32.845Z,12.02
2022-08-26T22:19:00.855Z,8.48
2022-08-26T22:21:29.017Z,8.10
2022-08-26T22:23:58.908Z,6.80
2022-08-26T22:26:34.570Z,8.75
2022-08-26T22:29:03.311Z,9.27
2022-08-26T22:31:37.542Z,9.55
2022-08-26T22:34:08.706Z,8.80
2022-08-26T22:36:43.754Z,7.40
2022-08-26T22:39:14.384Z,8.27
2022-08-26T22:41:43.069Z,7.55
2022-08-26T22:44:12.501Z,6.47
2022-08-26T22:46:42.395Z,7.90
2022-08-26T22:49:12.512Z,10.75
2022-08-26T22:51:40.486Z,11.65
2022-08-26T22:54:08.397Z,10.43
2022-08-26T22:56:38.634Z,8.60
2022-08-26T22:59:07.957Z,8.52
2022-08-26T23:01:37.451Z,8.35
2022-08-26T23:04:07.252Z,12.90
2022-08-26T23:06:37.215Z,12.55
2022-08-26T23:09:06.464Z,9.75
2022-08-26T23:11:35.235Z,11.73
2022-08-26T23:14:06.399Z,11.68
2022-08-26T23:16:39.206Z,13.23
2022-08-26T23:19:08.005Z,9.60
2022-08-26T23:21:35.922Z,9.07
2022-08-26T23:24:04.243Z,9.68
2022-08-26T23:26:32.723Z,9.07
2022-08-26T23:29:01.019Z,7.68
2022-08-26T23:31:30.369Z,9.30
2022-08-26T23:34:15.494Z,10.52
2022-08-26T23:36:45.250Z,9.68
2022-08-26T23:39:15.115Z,9.85
2022-08-26T23:41:43.281Z,8.70
2022-08-26T23:44:12.339Z,9.55
2022-08-26T23:46:41.596Z,9.85
2022-08-26T23:49:09.533Z,8.65
2022-08-26T23:51:56.007Z,8.30
2022-08-26T23:54:24.049Z,8.63
2022-08-26T23:56:51.962Z,9.35
2022-08-26T23:59:20.010Z,6.63
